Ghaziabad Weather



Ghaziabad's Current Weather

Temprature 13.8o clear sky

clear sky

Rain: 0 %

Min Temprature13.8o
Max Temprature13.8o
Humidity34
Wind Speed3.73 m/h
Sun Rise07:04:16
Sun Set17:37:00
Current Time: 23-Jan-2021 19:51:14
Lat/Lon: 30.3982, 72.7553




Ghaziabad's Geo Location



Ghaziabad's Weather Forecast

Time Overall Temp Min Temp Max Temp Humidity Wind Speed Rain
23-Jan-2021 (Sat)
20:00:00 clear sky 16.840 13.800 16.840 30 3.73 m/h 0 %
23:00:00 clear sky 12.930 11.060 12.930 37 2.87 m/h 0 %
24-Jan-2021 (Sun)
02:00:00 clear sky 9.860 9.190 9.860 45 2.27 m/h 0 %
05:00:00 clear sky 8.080 7.990 8.080 54 1.5 m/h 0 %
08:00:00 clear sky 9.010 9.010 9.010 52 2.78 m/h 0 %
11:00:00 clear sky 18.680 18.680 18.680 22 6.21 m/h 0 %
14:00:00 clear sky 21.830 21.830 21.830 19 5.69 m/h 0 %
17:00:00 clear sky 19.100 19.100 19.100 22 4.37 m/h 0 %
20:00:00 clear sky 12.970 12.970 12.970 31 3.54 m/h 0 %
23:00:00 clear sky 11.100 11.100 11.100 34 3.06 m/h 0 %
25-Jan-2021 (Mon)
02:00:00 clear sky 10.400 10.400 10.400 44 2.52 m/h 0 %
05:00:00 clear sky 9.060 9.060 9.060 48 2.14 m/h 0 %
08:00:00 clear sky 9.790 9.790 9.790 43 2.03 m/h 0 %
11:00:00 clear sky 19.520 19.520 19.520 21 2.81 m/h 0 %
14:00:00 clear sky 22.770 22.770 22.770 20 2.84 m/h 0 %
17:00:00 clear sky 20.260 20.260 20.260 23 2.32 m/h 0 %
20:00:00 clear sky 13.890 13.890 13.890 34 3.08 m/h 0 %
23:00:00 clear sky 11.700 11.700 11.700 39 2 m/h 0 %
26-Jan-2021 (Tue)
02:00:00 clear sky 10.540 10.540 10.540 41 1.84 m/h 0 %
05:00:00 clear sky 9.140 9.140 9.140 45 1.33 m/h 0 %
08:00:00 clear sky 10.630 10.630 10.630 41 0.71 m/h 0 %
11:00:00 clear sky 20.200 20.200 20.200 22 1.67 m/h 0 %
14:00:00 clear sky 23.220 23.220 23.220 18 2.7 m/h 0 %
17:00:00 clear sky 20.590 20.590 20.590 21 2.44 m/h 0 %
20:00:00 clear sky 13.990 13.990 13.990 33 3.08 m/h 0 %
23:00:00 clear sky 12.200 12.200 12.200 38 2.59 m/h 0 %
27-Jan-2021 (Wed)
02:00:00 clear sky 10.610 10.610 10.610 42 2.01 m/h 0 %
05:00:00 clear sky 9.270 9.270 9.270 47 1.29 m/h 0 %
08:00:00 clear sky 10.780 10.780 10.780 43 1.38 m/h 0 %
11:00:00 clear sky 20.470 20.470 20.470 22 2.15 m/h 0 %
14:00:00 clear sky 23.610 23.610 23.610 17 3.5 m/h 0 %
17:00:00 clear sky 20.700 20.700 20.700 21 2.74 m/h 0 %
20:00:00 clear sky 14.010 14.010 14.010 33 2.87 m/h 0 %
23:00:00 clear sky 11.790 11.790 11.790 38 1.99 m/h 0 %
28-Jan-2021 (Thu)
02:00:00 clear sky 10.290 10.290 10.290 43 1.57 m/h 0 %
05:00:00 clear sky 9.640 9.640 9.640 45 1.72 m/h 0 %
08:00:00 clear sky 10.870 10.870 10.870 41 1.21 m/h 0 %
11:00:00 clear sky 20.920 20.920 20.920 21 1.88 m/h 0 %
14:00:00 clear sky 24.050 24.050 24.050 16 3.13 m/h 0 %
17:00:00 clear sky 21.250 21.250 21.250 19 2.5 m/h 0 %

Famous Cities (60)